sensor_id;sensor_type;location;lat;lon;timestamp;P1;durP1;ratioP1;P2;durP2;ratioP2
1725;SDS011;41776;48.260;8.928;2023-12-28T00:00:18;1.40;;;1.10;;
1725;SDS011;41776;48.260;8.928;2023-12-28T00:02:46;1.83;;;1.13;;
1725;SDS011;41776;48.260;8.928;2023-12-28T00:05:14;1.67;;;0.93;;
1725;SDS011;41776;48.260;8.928;2023-12-28T00:07:40;1.90;;;1.20;;
1725;SDS011;41776;48.260;8.928;2023-12-28T00:10:07;1.53;;;1.10;;
1725;SDS011;41776;48.260;8.928;2023-12-28T00:12:34;1.00;;;1.00;;
1725;SDS011;41776;48.260;8.928;2023-12-28T00:15:00;4.10;;;1.13;;
1725;SDS011;41776;48.260;8.928;2023-12-28T00:17:27;2.13;;;0.93;;
1725;SDS011;41776;48.260;8.928;2023-12-28T00:19:53;1.30;;;1.20;;
1725;SDS011;41776;48.260;8.928;2023-12-28T00:22:21;4.23;;;1.10;;
1725;SDS011;41776;48.260;8.928;2023-12-28T00:24:48;1.10;;;1.00;;
1725;SDS011;41776;48.260;8.928;2023-12-28T00:27:14;1.83;;;1.17;;
1725;SDS011;41776;48.260;8.928;2023-12-28T00:29:41;4.33;;;1.20;;
1725;SDS011;41776;48.260;8.928;2023-12-28T00:32:08;2.53;;;1.30;;
1725;SDS011;41776;48.260;8.928;2023-12-28T00:34:34;3.03;;;1.13;;
1725;SDS011;41776;48.260;8.928;2023-12-28T00:37:01;1.80;;;1.10;;
1725;SDS011;41776;48.260;8.928;2023-12-28T00:39:29;1.83;;;1.07;;
1725;SDS011;41776;48.260;8.928;2023-12-28T00:41:55;2.80;;;1.40;;
1725;SDS011;41776;48.260;8.928;2023-12-28T00:44:22;1.63;;;1.10;;
1725;SDS011;41776;48.260;8.928;2023-12-28T00:46:48;1.53;;;1.10;;
1725;SDS011;41776;48.260;8.928;2023-12-28T00:49:15;1.37;;;1.27;;
1725;SDS011;41776;48.260;8.928;2023-12-28T00:51:41;2.57;;;1.20;;
1725;SDS011;41776;48.260;8.928;2023-12-28T00:54:08;1.80;;;1.17;;
1725;SDS011;41776;48.260;8.928;2023-12-28T00:56:36;2.70;;;1.47;;
1725;SDS011;41776;48.260;8.928;2023-12-28T00:59:02;3.33;;;1.50;;
1725;SDS011;41776;48.260;8.928;2023-12-28T01:01:29;2.57;;;1.40;;
1725;SDS011;41776;48.260;8.928;2023-12-28T01:03:56;2.13;;;1.33;;
1725;SDS011;41776;48.260;8.928;2023-12-28T01:06:23;2.10;;;1.50;;
1725;SDS011;41776;48.260;8.928;2023-12-28T01:08:52;2.13;;;1.40;;
1725;SDS011;41776;48.260;8.928;2023-12-28T01:11:19;2.33;;;1.20;;
1725;SDS011;41776;48.260;8.928;2023-12-28T01:13:50;1.83;;;1.10;;
1725;SDS011;41776;48.260;8.928;2023-12-28T01:16:17;2.40;;;1.03;;
1725;SDS011;41776;48.260;8.928;2023-12-28T01:18:44;3.73;;;1.20;;
1725;SDS011;41776;48.260;8.928;2023-12-28T01:21:10;1.77;;;1.20;;
1725;SDS011;41776;48.260;8.928;2023-12-28T01:23:36;2.80;;;1.30;;
1725;SDS011;41776;48.260;8.928;2023-12-28T01:26:03;1.67;;;1.10;;
1725;SDS011;41776;48.260;8.928;2023-12-28T01:28:29;3.97;;;1.37;;
1725;SDS011;41776;48.260;8.928;2023-12-28T01:30:57;2.47;;;1.20;;
1725;SDS011;41776;48.260;8.928;2023-12-28T01:33:24;1.90;;;1.30;;
1725;SDS011;41776;48.260;8.928;2023-12-28T01:35:50;2.60;;;1.40;;
1725;SDS011;41776;48.260;8.928;2023-12-28T01:38:17;1.60;;;1.40;;
1725;SDS011;41776;48.260;8.928;2023-12-28T01:40:44;4.50;;;1.30;;
1725;SDS011;41776;48.260;8.928;2023-12-28T01:43:11;2.60;;;1.50;;
1725;SDS011;41776;48.260;8.928;2023-12-28T01:45:37;1.40;;;1.30;;
1725;SDS011;41776;48.260;8.928;2023-12-28T01:48:05;1.57;;;1.20;;
1725;SDS011;41776;48.260;8.928;2023-12-28T01:50:32;2.00;;;1.30;;
1725;SDS011;41776;48.260;8.928;2023-12-28T01:52:59;1.80;;;1.13;;
1725;SDS011;41776;48.260;8.928;2023-12-28T01:55:27;1.90;;;1.20;;
1725;SDS011;41776;48.260;8.928;2023-12-28T01:57:56;1.70;;;1.20;;
1725;SDS011;41776;48.260;8.928;2023-12-28T02:00:23;1.97;;;1.30;;
1725;SDS011;41776;48.260;8.928;2023-12-28T02:02:50;3.33;;;1.20;;
1725;SDS011;41776;48.260;8.928;2023-12-28T02:05:19;1.83;;;1.40;;
1725;SDS011;41776;48.260;8.928;2023-12-28T02:07:46;6.33;;;1.33;;
1725;SDS011;41776;48.260;8.928;2023-12-28T02:10:12;2.20;;;1.40;;
1725;SDS011;41776;48.260;8.928;2023-12-28T02:12:38;1.27;;;1.00;;
1725;SDS011;41776;48.260;8.928;2023-12-28T02:15:05;1.87;;;1.20;;
1725;SDS011;41776;48.260;8.928;2023-12-28T02:17:33;1.87;;;1.17;;
1725;SDS011;41776;48.260;8.928;2023-12-28T02:20:03;4.67;;;1.30;;
1725;SDS011;41776;48.260;8.928;2023-12-28T02:22:33;2.70;;;1.30;;
1725;SDS011;41776;48.260;8.928;2023-12-28T02:25:06;1.97;;;1.27;;
1725;SDS011;41776;48.260;8.928;2023-12-28T02:27:33;1.77;;;1.10;;
1725;SDS011;41776;48.260;8.928;2023-12-28T02:30:01;3.20;;;1.20;;
1725;SDS011;41776;48.260;8.928;2023-12-28T02:32:32;2.13;;;1.27;;
1725;SDS011;41776;48.260;8.928;2023-12-28T02:35:12;1.67;;;1.13;;
1725;SDS011;41776;48.260;8.928;2023-12-28T02:37:43;4.27;;;1.20;;
1725;SDS011;41776;48.260;8.928;2023-12-28T02:40:15;3.10;;;1.40;;
1725;SDS011;41776;48.260;8.928;2023-12-28T02:42:42;3.37;;;1.50;;
1725;SDS011;41776;48.260;8.928;2023-12-28T02:45:08;3.87;;;1.20;;
1725;SDS011;41776;48.260;8.928;2023-12-28T02:47:35;1.57;;;1.00;;
1725;SDS011;41776;48.260;8.928;2023-12-28T02:50:02;1.80;;;1.30;;
1725;SDS011;41776;48.260;8.928;2023-12-28T02:52:28;2.27;;;1.30;;
1725;SDS011;41776;48.260;8.928;2023-12-28T02:54:55;1.30;;;1.20;;
1725;SDS011;41776;48.260;8.928;2023-12-28T02:57:22;3.70;;;1.30;;
1725;SDS011;41776;48.260;8.928;2023-12-28T02:59:49;3.03;;;1.27;;
1725;SDS011;41776;48.260;8.928;2023-12-28T03:02:15;2.13;;;1.47;;
1725;SDS011;41776;48.260;8.928;2023-12-28T03:04:42;1.57;;;1.30;;
1725;SDS011;41776;48.260;8.928;2023-12-28T03:07:08;1.90;;;1.07;;
1725;SDS011;41776;48.260;8.928;2023-12-28T03:09:34;1.70;;;1.00;;
1725;SDS011;41776;48.260;8.928;2023-12-28T03:12:03;1.97;;;1.00;;
1725;SDS011;41776;48.260;8.928;2023-12-28T03:14:32;2.37;;;1.33;;
1725;SDS011;41776;48.260;8.928;2023-12-28T03:16:58;2.53;;;1.40;;
1725;SDS011;41776;48.260;8.928;2023-12-28T03:19:24;1.73;;;1.20;;
1725;SDS011;41776;48.260;8.928;2023-12-28T03:21:51;3.67;;;1.23;;
1725;SDS011;41776;48.260;8.928;2023-12-28T03:24:17;2.17;;;1.40;;
1725;SDS011;41776;48.260;8.928;2023-12-28T03:26:43;1.10;;;1.00;;
1725;SDS011;41776;48.260;8.928;2023-12-28T03:29:10;3.60;;;0.90;;
1725;SDS011;41776;48.260;8.928;2023-12-28T03:31:39;2.07;;;1.20;;
1725;SDS011;41776;48.260;8.928;2023-12-28T03:34:06;2.10;;;1.00;;
1725;SDS011;41776;48.260;8.928;2023-12-28T03:36:33;1.37;;;1.07;;
1725;SDS011;41776;48.260;8.928;2023-12-28T03:38:59;2.67;;;1.00;;
1725;SDS011;41776;48.260;8.928;2023-12-28T03:41:25;2.17;;;1.30;;
1725;SDS011;41776;48.260;8.928;2023-12-28T03:43:52;2.00;;;1.30;;
1725;SDS011;41776;48.260;8.928;2023-12-28T03:46:18;1.53;;;1.33;;
1725;SDS011;41776;48.260;8.928;2023-12-28T03:48:46;2.77;;;1.30;;
1725;SDS011;41776;48.260;8.928;2023-12-28T03:51:13;4.77;;;1.20;;
1725;SDS011;41776;48.260;8.928;2023-12-28T03:53:40;2.07;;;1.17;;
1725;SDS011;41776;48.260;8.928;2023-12-28T03:56:06;2.77;;;1.37;;
1725;SDS011;41776;48.260;8.928;2023-12-28T03:58:33;1.27;;;1.13;;
1725;SDS011;41776;48.260;8.928;2023-12-28T04:00:59;1.23;;;1.10;;
1725;SDS011;41776;48.260;8.928;2023-12-28T04:03:25;2.97;;;1.47;;
1725;SDS011;41776;48.260;8.928;2023-12-28T04:05:53;1.93;;;1.00;;
1725;SDS011;41776;48.260;8.928;2023-12-28T04:08:20;1.80;;;1.20;;
1725;SDS011;41776;48.260;8.928;2023-12-28T04:10:46;1.33;;;0.97;;
1725;SDS011;41776;48.260;8.928;2023-12-28T04:13:12;1.33;;;1.03;;
1725;SDS011;41776;48.260;8.928;2023-12-28T04:15:42;1.50;;;1.20;;
1725;SDS011;41776;48.260;8.928;2023-12-28T04:18:09;1.98;;;1.20;;
1725;SDS011;41776;48.260;8.928;2023-12-28T04:20:35;1.77;;;1.00;;
1725;SDS011;41776;48.260;8.928;2023-12-28T04:23:03;1.67;;;1.20;;
1725;SDS011;41776;48.260;8.928;2023-12-28T04:25:29;1.13;;;0.87;;
1725;SDS011;41776;48.260;8.928;2023-12-28T04:27:56;3.83;;;1.00;;
1725;SDS011;41776;48.260;8.928;2023-12-28T04:30:22;4.17;;;1.00;;
1725;SDS011;41776;48.260;8.928;2023-12-28T04:32:49;1.47;;;1.00;;
1725;SDS011;41776;48.260;8.928;2023-12-28T04:35:15;1.77;;;0.90;;
1725;SDS011;41776;48.260;8.928;2023-12-28T04:37:41;1.10;;;0.97;;
1725;SDS011;41776;48.260;8.928;2023-12-28T04:40:10;1.47;;;1.07;;
1725;SDS011;41776;48.260;8.928;2023-12-28T04:42:39;2.70;;;1.20;;
1725;SDS011;41776;48.260;8.928;2023-12-28T04:45:06;2.13;;;1.33;;
1725;SDS011;41776;48.260;8.928;2023-12-28T04:47:33;2.17;;;1.23;;
1725;SDS011;41776;48.260;8.928;2023-12-28T04:50:00;1.43;;;0.93;;
1725;SDS011;41776;48.260;8.928;2023-12-28T04:52:27;1.13;;;1.00;;
1725;SDS011;41776;48.260;8.928;2023-12-28T04:54:54;1.83;;;1.10;;
1725;SDS011;41776;48.260;8.928;2023-12-28T04:57:22;1.33;;;0.90;;
1725;SDS011;41776;48.260;8.928;2023-12-28T04:59:49;1.30;;;1.00;;
1725;SDS011;41776;48.260;8.928;2023-12-28T05:02:16;1.67;;;0.90;;
1725;SDS011;41776;48.260;8.928;2023-12-28T05:04:42;1.33;;;0.90;;
1725;SDS011;41776;48.260;8.928;2023-12-28T05:07:09;1.40;;;1.07;;
1725;SDS011;41776;48.260;8.928;2023-12-28T05:09:36;3.03;;;1.13;;
1725;SDS011;41776;48.260;8.928;2023-12-28T05:12:02;1.87;;;1.27;;
1725;SDS011;41776;48.260;8.928;2023-12-28T05:14:31;3.43;;;1.60;;
1725;SDS011;41776;48.260;8.928;2023-12-28T05:16:58;2.47;;;1.50;;
1725;SDS011;41776;48.260;8.928;2023-12-28T05:19:24;1.50;;;1.13;;
1725;SDS011;41776;48.260;8.928;2023-12-28T05:21:51;4.07;;;1.40;;
1725;SDS011;41776;48.260;8.928;2023-12-28T05:24:17;2.93;;;1.10;;
1725;SDS011;41776;48.260;8.928;2023-12-28T05:26:43;2.77;;;1.23;;
1725;SDS011;41776;48.260;8.928;2023-12-28T05:29:10;1.30;;;0.90;;
1725;SDS011;41776;48.260;8.928;2023-12-28T05:31:38;1.20;;;0.97;;
1725;SDS011;41776;48.260;8.928;2023-12-28T05:34:04;1.80;;;1.00;;
1725;SDS011;41776;48.260;8.928;2023-12-28T05:36:31;4.03;;;0.80;;
1725;SDS011;41776;48.260;8.928;2023-12-28T05:38:57;1.73;;;1.07;;
1725;SDS011;41776;48.260;8.928;2023-12-28T05:41:24;1.40;;;0.80;;
1725;SDS011;41776;48.260;8.928;2023-12-28T05:43:50;1.97;;;1.10;;
1725;SDS011;41776;48.260;8.928;2023-12-28T05:46:16;2.63;;;0.80;;
1725;SDS011;41776;48.260;8.928;2023-12-28T05:48:44;1.87;;;1.00;;
1725;SDS011;41776;48.260;8.928;2023-12-28T05:51:11;2.03;;;0.90;;
1725;SDS011;41776;48.260;8.928;2023-12-28T05:53:37;3.80;;;1.02;;
1725;SDS011;41776;48.260;8.928;2023-12-28T05:56:04;2.20;;;1.07;;
1725;SDS011;41776;48.260;8.928;2023-12-28T05:58:30;3.17;;;0.80;;
1725;SDS011;41776;48.260;8.928;2023-12-28T06:00:57;2.97;;;1.00;;
1725;SDS011;41776;48.260;8.928;2023-12-28T06:03:24;2.27;;;1.00;;
1725;SDS011;41776;48.260;8.928;2023-12-28T06:05:54;1.60;;;1.00;;
1725;SDS011;41776;48.260;8.928;2023-12-28T06:08:21;2.57;;;0.87;;
1725;SDS011;41776;48.260;8.928;2023-12-28T06:10:47;3.70;;;0.87;;
1725;SDS011;41776;48.260;8.928;2023-12-28T06:13:16;2.73;;;1.00;;
1725;SDS011;41776;48.260;8.928;2023-12-28T06:15:45;1.47;;;0.90;;
1725;SDS011;41776;48.260;8.928;2023-12-28T06:18:11;0.80;;;0.80;;
1725;SDS011;41776;48.260;8.928;2023-12-28T06:20:38;3.90;;;1.03;;
1725;SDS011;41776;48.260;8.928;2023-12-28T06:23:07;2.03;;;0.80;;
1725;SDS011;41776;48.260;8.928;2023-12-28T06:25:34;1.70;;;0.83;;
1725;SDS011;41776;48.260;8.928;2023-12-28T06:28:00;0.83;;;0.70;;
1725;SDS011;41776;48.260;8.928;2023-12-28T06:30:26;4.03;;;1.03;;
1725;SDS011;41776;48.260;8.928;2023-12-28T06:32:54;1.85;;;0.90;;
1725;SDS011;41776;48.260;8.928;2023-12-28T06:35:20;2.63;;;1.20;;
1725;SDS011;41776;48.260;8.928;2023-12-28T06:37:47;3.67;;;1.33;;
1725;SDS011;41776;48.260;8.928;2023-12-28T06:40:14;4.00;;;0.90;;
1725;SDS011;41776;48.260;8.928;2023-12-28T06:42:41;1.37;;;1.13;;
1725;SDS011;41776;48.260;8.928;2023-12-28T06:45:08;5.27;;;1.50;;
1725;SDS011;41776;48.260;8.928;2023-12-28T06:47:35;6.23;;;1.50;;
1725;SDS011;41776;48.260;8.928;2023-12-28T06:50:02;2.33;;;1.30;;
1725;SDS011;41776;48.260;8.928;2023-12-28T06:52:28;2.33;;;1.27;;
1725;SDS011;41776;48.260;8.928;2023-12-28T06:54:56;1.73;;;1.20;;
1725;SDS011;41776;48.260;8.928;2023-12-28T06:57:24;3.17;;;1.10;;
1725;SDS011;41776;48.260;8.928;2023-12-28T06:59:50;3.93;;;1.20;;
1725;SDS011;41776;48.260;8.928;2023-12-28T07:02:17;2.90;;;1.10;;
1725;SDS011;41776;48.260;8.928;2023-12-28T07:04:43;2.17;;;0.90;;
1725;SDS011;41776;48.260;8.928;2023-12-28T07:07:10;2.90;;;1.20;;
1725;SDS011;41776;48.260;8.928;2023-12-28T07:09:36;4.45;;;1.13;;
1725;SDS011;41776;48.260;8.928;2023-12-28T07:12:03;4.37;;;1.20;;
1725;SDS011;41776;48.260;8.928;2023-12-28T07:14:31;2.10;;;1.25;;
1725;SDS011;41776;48.260;8.928;2023-12-28T07:16:57;4.93;;;1.23;;
1725;SDS011;41776;48.260;8.928;2023-12-28T07:19:25;2.20;;;1.33;;
1725;SDS011;41776;48.260;8.928;2023-12-28T07:21:51;4.17;;;1.00;;
1725;SDS011;41776;48.260;8.928;2023-12-28T07:24:17;4.60;;;1.20;;
1725;SDS011;41776;48.260;8.928;2023-12-28T07:26:44;1.40;;;1.07;;
1725;SDS011;41776;48.260;8.928;2023-12-28T07:29:10;2.53;;;1.00;;
1725;SDS011;41776;48.260;8.928;2023-12-28T07:31:38;1.57;;;1.00;;
1725;SDS011;41776;48.260;8.928;2023-12-28T07:34:04;3.15;;;1.30;;
1725;SDS011;41776;48.260;8.928;2023-12-28T07:36:32;2.63;;;1.60;;
1725;SDS011;41776;48.260;8.928;2023-12-28T07:38:58;4.23;;;1.67;;
1725;SDS011;41776;48.260;8.928;2023-12-28T07:41:25;3.23;;;1.40;;
1725;SDS011;41776;48.260;8.928;2023-12-28T07:43:51;4.63;;;1.40;;
1725;SDS011;41776;48.260;8.928;2023-12-28T07:46:18;2.13;;;1.50;;
1725;SDS011;41776;48.260;8.928;2023-12-28T07:48:47;4.93;;;1.45;;
1725;SDS011;41776;48.260;8.928;2023-12-28T07:51:13;3.30;;;1.63;;
1725;SDS011;41776;48.260;8.928;2023-12-28T07:53:40;2.80;;;1.30;;
1725;SDS011;41776;48.260;8.928;2023-12-28T07:56:06;2.72;;;1.50;;
1725;SDS011;41776;48.260;8.928;2023-12-28T07:58:32;3.17;;;1.35;;
1725;SDS011;41776;48.260;8.928;2023-12-28T08:00:59;5.10;;;2.00;;
1725;SDS011;41776;48.260;8.928;2023-12-28T08:03:25;4.28;;;2.03;;
1725;SDS011;41776;48.260;8.928;2023-12-28T08:05:53;4.20;;;1.90;;
1725;SDS011;41776;48.260;8.928;2023-12-28T08:08:19;4.55;;;2.60;;
1725;SDS011;41776;48.260;8.928;2023-12-28T08:10:45;14.30;;;6.85;;
1725;SDS011;41776;48.260;8.928;2023-12-28T08:13:12;11.00;;;5.15;;
1725;SDS011;41776;48.260;8.928;2023-12-28T08:15:38;8.60;;;4.47;;
1725;SDS011;41776;48.260;8.928;2023-12-28T08:18:05;14.43;;;6.40;;
1725;SDS011;41776;48.260;8.928;2023-12-28T08:20:31;13.73;;;6.45;;
1725;SDS011;41776;48.260;8.928;2023-12-28T08:22:59;13.30;;;6.70;;
1725;SDS011;41776;48.260;8.928;2023-12-28T08:25:25;11.73;;;6.07;;
1725;SDS011;41776;48.260;8.928;2023-12-28T08:27:52;6.38;;;3.85;;
1725;SDS011;41776;48.260;8.928;2023-12-28T08:30:18;4.30;;;2.80;;
1725;SDS011;41776;48.260;8.928;2023-12-28T08:32:45;1.73;;;1.50;;
1725;SDS011;41776;48.260;8.928;2023-12-28T08:35:11;3.28;;;1.50;;
1725;SDS011;41776;48.260;8.928;2023-12-28T08:37:38;4.13;;;1.67;;
1725;SDS011;41776;48.260;8.928;2023-12-28T08:40:07;3.00;;;1.45;;
1725;SDS011;41776;48.260;8.928;2023-12-28T08:42:34;2.83;;;1.60;;
1725;SDS011;41776;48.260;8.928;2023-12-28T08:45:00;2.33;;;1.20;;
1725;SDS011;41776;48.260;8.928;2023-12-28T08:47:27;2.08;;;1.20;;
1725;SDS011;41776;48.260;8.928;2023-12-28T08:49:53;3.60;;;1.23;;
1725;SDS011;41776;48.260;8.928;2023-12-28T08:52:20;1.73;;;1.02;;
1725;SDS011;41776;48.260;8.928;2023-12-28T08:54:46;2.25;;;1.30;;
1725;SDS011;41776;48.260;8.928;2023-12-28T08:57:14;3.22;;;0.90;;
1725;SDS011;41776;48.260;8.928;2023-12-28T08:59:40;2.38;;;1.30;;
1725;SDS011;41776;48.260;8.928;2023-12-28T09:02:07;1.92;;;1.20;;
1725;SDS011;41776;48.260;8.928;2023-12-28T09:04:33;2.17;;;1.30;;
1725;SDS011;41776;48.260;8.928;2023-12-28T09:07:00;2.33;;;1.30;;
1725;SDS011;41776;48.260;8.928;2023-12-28T09:09:27;2.15;;;1.02;;
1725;SDS011;41776;48.260;8.928;2023-12-28T09:11:53;4.28;;;1.27;;
1725;SDS011;41776;48.260;8.928;2023-12-28T09:14:21;3.08;;;1.20;;
1725;SDS011;41776;48.260;8.928;2023-12-28T09:16:48;4.68;;;1.40;;
1725;SDS011;41776;48.260;8.928;2023-12-28T09:19:14;2.00;;;1.30;;
1725;SDS011;41776;48.260;8.928;2023-12-28T09:21:41;2.30;;;1.10;;
1725;SDS011;41776;48.260;8.928;2023-12-28T09:24:07;2.15;;;1.05;;
1725;SDS011;41776;48.260;8.928;2023-12-28T09:26:33;1.83;;;1.00;;
1725;SDS011;41776;48.260;8.928;2023-12-28T09:29:00;1.00;;;0.90;;
1725;SDS011;41776;48.260;8.928;2023-12-28T09:31:28;2.92;;;1.00;;
1725;SDS011;41776;48.260;8.928;2023-12-28T09:33:54;1.55;;;0.98;;
1725;SDS011;41776;48.260;8.928;2023-12-28T09:36:21;1.33;;;0.98;;
1725;SDS011;41776;48.260;8.928;2023-12-28T09:38:47;1.15;;;0.80;;
1725;SDS011;41776;48.260;8.928;2023-12-28T09:41:14;1.38;;;1.00;;
1725;SDS011;41776;48.260;8.928;2023-12-28T09:43:44;1.50;;;0.85;;
1725;SDS011;41776;48.260;8.928;2023-12-28T09:46:17;1.90;;;1.10;;
1725;SDS011;41776;48.260;8.928;2023-12-28T09:48:45;1.23;;;0.98;;
1725;SDS011;41776;48.260;8.928;2023-12-28T09:51:12;1.65;;;0.80;;
1725;SDS011;41776;48.260;8.928;2023-12-28T09:53:38;3.97;;;1.10;;
1725;SDS011;41776;48.260;8.928;2023-12-28T09:56:05;1.25;;;1.15;;
1725;SDS011;41776;48.260;8.928;2023-12-28T09:58:33;1.63;;;1.20;;
1725;SDS011;41776;48.260;8.928;2023-12-28T10:01:01;2.28;;;0.95;;
1725;SDS011;41776;48.260;8.928;2023-12-28T10:03:29;1.08;;;0.70;;
1725;SDS011;41776;48.260;8.928;2023-12-28T10:05:56;0.95;;;0.82;;
1725;SDS011;41776;48.260;8.928;2023-12-28T10:08:23;2.13;;;0.93;;
1725;SDS011;41776;48.260;8.928;2023-12-28T10:10:49;1.05;;;0.90;;
1725;SDS011;41776;48.260;8.928;2023-12-28T10:13:19;1.35;;;0.80;;
1725;SDS011;41776;48.260;8.928;2023-12-28T10:15:45;1.60;;;1.05;;
1725;SDS011;41776;48.260;8.928;2023-12-28T10:18:12;2.00;;;1.00;;
1725;SDS011;41776;48.260;8.928;2023-12-28T10:20:39;2.13;;;1.00;;
1725;SDS011;41776;48.260;8.928;2023-12-28T10:23:06;1.52;;;0.75;;
1725;SDS011;41776;48.260;8.928;2023-12-28T10:25:35;2.50;;;0.90;;
1725;SDS011;41776;48.260;8.928;2023-12-28T10:28:03;4.35;;;1.20;;
1725;SDS011;41776;48.260;8.928;2023-12-28T10:30:30;1.60;;;1.00;;
1725;SDS011;41776;48.260;8.928;2023-12-28T10:32:57;1.98;;;1.00;;
1725;SDS011;41776;48.260;8.928;2023-12-28T10:35:23;1.25;;;0.85;;
1725;SDS011;41776;48.260;8.928;2023-12-28T10:37:50;2.30;;;0.90;;
1725;SDS011;41776;48.260;8.928;2023-12-28T10:40:20;2.25;;;0.82;;
1725;SDS011;41776;48.260;8.928;2023-12-28T10:42:50;2.70;;;0.90;;
1725;SDS011;41776;48.260;8.928;2023-12-28T10:45:18;2.22;;;1.20;;
1725;SDS011;41776;48.260;8.928;2023-12-28T10:47:51;2.67;;;1.08;;
1725;SDS011;41776;48.260;8.928;2023-12-28T10:50:25;1.45;;;1.02;;
1725;SDS011;41776;48.260;8.928;2023-12-28T10:52:56;1.83;;;1.10;;
1725;SDS011;41776;48.260;8.928;2023-12-28T10:55:33;1.10;;;1.00;;
1725;SDS011;41776;48.260;8.928;2023-12-28T10:58:10;1.25;;;0.93;;
1725;SDS011;41776;48.260;8.928;2023-12-28T11:00:39;6.95;;;1.05;;
1725;SDS011;41776;48.260;8.928;2023-12-28T11:03:11;3.40;;;1.10;;
1725;SDS011;41776;48.260;8.928;2023-12-28T11:05:44;4.05;;;1.38;;
1725;SDS011;41776;48.260;8.928;2023-12-28T11:08:13;1.50;;;0.95;;
1725;SDS011;41776;48.260;8.928;2023-12-28T11:10:42;0.88;;;0.70;;
1725;SDS011;41776;48.260;8.928;2023-12-28T11:13:09;1.33;;;0.80;;
1725;SDS011;41776;48.260;8.928;2023-12-28T11:15:36;0.80;;;0.77;;
1725;SDS011;41776;48.260;8.928;2023-12-28T11:18:04;1.00;;;0.90;;
1725;SDS011;41776;48.260;8.928;2023-12-28T11:20:30;1.20;;;0.90;;
1725;SDS011;41776;48.260;8.928;2023-12-28T11:22:58;3.00;;;1.08;;
1725;SDS011;41776;48.260;8.928;2023-12-28T11:25:30;1.30;;;1.10;;
1725;SDS011;41776;48.260;8.928;2023-12-28T11:27:59;6.53;;;2.22;;
1725;SDS011;41776;48.260;8.928;2023-12-28T11:30:26;4.55;;;1.90;;
1725;SDS011;41776;48.260;8.928;2023-12-28T11:32:55;2.97;;;0.80;;
1725;SDS011;41776;48.260;8.928;2023-12-28T11:35:22;2.67;;;1.02;;
1725;SDS011;41776;48.260;8.928;2023-12-28T11:37:51;2.15;;;0.93;;
1725;SDS011;41776;48.260;8.928;2023-12-28T11:40:20;3.03;;;1.00;;
1725;SDS011;41776;48.260;8.928;2023-12-28T11:42:47;1.33;;;0.80;;
1725;SDS011;41776;48.260;8.928;2023-12-28T11:45:17;1.30;;;0.95;;
1725;SDS011;41776;48.260;8.928;2023-12-28T11:47:44;0.93;;;0.77;;
1725;SDS011;41776;48.260;8.928;2023-12-28T11:50:11;2.53;;;1.17;;
1725;SDS011;41776;48.260;8.928;2023-12-28T11:52:38;2.13;;;1.15;;
1725;SDS011;41776;48.260;8.928;2023-12-28T11:55:05;2.15;;;0.90;;
1725;SDS011;41776;48.260;8.928;2023-12-28T11:57:32;2.78;;;1.00;;
1725;SDS011;41776;48.260;8.928;2023-12-28T11:59:58;2.35;;;0.95;;
1725;SDS011;41776;48.260;8.928;2023-12-28T12:02:27;1.58;;;1.10;;
1725;SDS011;41776;48.260;8.928;2023-12-28T12:04:54;1.90;;;0.90;;
1725;SDS011;41776;48.260;8.928;2023-12-28T12:07:23;1.75;;;1.10;;
1725;SDS011;41776;48.260;8.928;2023-12-28T12:09:54;2.90;;;0.70;;
1725;SDS011;41776;48.260;8.928;2023-12-28T12:12:21;8.18;;;1.30;;
1725;SDS011;41776;48.260;8.928;2023-12-28T12:14:48;6.45;;;1.10;;
1725;SDS011;41776;48.260;8.928;2023-12-28T12:17:14;1.30;;;0.93;;
1725;SDS011;41776;48.260;8.928;2023-12-28T12:19:42;1.00;;;0.90;;
1725;SDS011;41776;48.260;8.928;2023-12-28T12:22:10;2.00;;;1.08;;
1725;SDS011;41776;48.260;8.928;2023-12-28T12:24:37;2.75;;;0.90;;
1725;SDS011;41776;48.260;8.928;2023-12-28T12:27:07;1.80;;;1.08;;
1725;SDS011;41776;48.260;8.928;2023-12-28T12:29:34;2.58;;;1.25;;
1725;SDS011;41776;48.260;8.928;2023-12-28T12:32:00;2.17;;;1.02;;
1725;SDS011;41776;48.260;8.928;2023-12-28T12:34:28;4.00;;;1.35;;
1725;SDS011;41776;48.260;8.928;2023-12-28T12:36:56;1.77;;;0.98;;
1725;SDS011;41776;48.260;8.928;2023-12-28T12:39:23;1.70;;;1.00;;
1725;SDS011;41776;48.260;8.928;2023-12-28T12:41:50;3.00;;;1.00;;
1725;SDS011;41776;48.260;8.928;2023-12-28T12:44:17;1.77;;;1.15;;
1725;SDS011;41776;48.260;8.928;2023-12-28T12:46:45;1.10;;;0.85;;
1725;SDS011;41776;48.260;8.928;2023-12-28T12:49:12;1.38;;;1.20;;
1725;SDS011;41776;48.260;8.928;2023-12-28T12:51:38;3.55;;;1.13;;
1725;SDS011;41776;48.260;8.928;2023-12-28T12:54:07;3.22;;;1.20;;
1725;SDS011;41776;48.260;8.928;2023-12-28T12:56:34;2.05;;;1.00;;
1725;SDS011;41776;48.260;8.928;2023-12-28T12:59:01;4.50;;;1.10;;
1725;SDS011;41776;48.260;8.928;2023-12-28T13:01:27;1.27;;;1.00;;
1725;SDS011;41776;48.260;8.928;2023-12-28T13:03:54;2.58;;;1.00;;
1725;SDS011;41776;48.260;8.928;2023-12-28T13:06:22;2.05;;;1.17;;
1725;SDS011;41776;48.260;8.928;2023-12-28T13:08:48;2.03;;;1.00;;
1725;SDS011;41776;48.260;8.928;2023-12-28T13:11:18;2.05;;;1.20;;
1725;SDS011;41776;48.260;8.928;2023-12-28T13:13:50;4.30;;;1.20;;
1725;SDS011;41776;48.260;8.928;2023-12-28T13:16:16;2.13;;;1.05;;
1725;SDS011;41776;48.260;8.928;2023-12-28T13:18:43;4.07;;;1.50;;
1725;SDS011;41776;48.260;8.928;2023-12-28T13:21:09;6.07;;;2.95;;
1725;SDS011;41776;48.260;8.928;2023-12-28T13:23:36;2.75;;;1.58;;
1725;SDS011;41776;48.260;8.928;2023-12-28T13:26:02;2.47;;;1.67;;
1725;SDS011;41776;48.260;8.928;2023-12-28T13:28:31;3.83;;;1.73;;
1725;SDS011;41776;48.260;8.928;2023-12-28T13:30:58;3.20;;;1.52;;
1725;SDS011;41776;48.260;8.928;2023-12-28T13:33:28;1.80;;;1.60;;
1725;SDS011;41776;48.260;8.928;2023-12-28T13:35:56;2.88;;;1.48;;
1725;SDS011;41776;48.260;8.928;2023-12-28T13:38:23;2.75;;;1.85;;
1725;SDS011;41776;48.260;8.928;2023-12-28T13:40:56;3.42;;;2.20;;
1725;SDS011;41776;48.260;8.928;2023-12-28T13:43:24;2.97;;;1.70;;
1725;SDS011;41776;48.260;8.928;2023-12-28T13:45:56;2.70;;;1.75;;
1725;SDS011;41776;48.260;8.928;2023-12-28T13:48:24;5.60;;;1.80;;
1725;SDS011;41776;48.260;8.928;2023-12-28T13:50:51;2.90;;;2.00;;
1725;SDS011;41776;48.260;8.928;2023-12-28T13:53:17;5.28;;;2.38;;
1725;SDS011;41776;48.260;8.928;2023-12-28T13:55:44;3.08;;;1.80;;
1725;SDS011;41776;48.260;8.928;2023-12-28T13:58:10;3.97;;;1.90;;
1725;SDS011;41776;48.260;8.928;2023-12-28T14:00:37;3.63;;;1.50;;
1725;SDS011;41776;48.260;8.928;2023-12-28T14:03:12;2.50;;;1.63;;
1725;SDS011;41776;48.260;8.928;2023-12-28T14:05:38;2.70;;;1.55;;
1725;SDS011;41776;48.260;8.928;2023-12-28T14:08:09;2.25;;;1.45;;
1725;SDS011;41776;48.260;8.928;2023-12-28T14:10:36;6.63;;;3.70;;
1725;SDS011;41776;48.260;8.928;2023-12-28T14:13:03;4.82;;;1.90;;
1725;SDS011;41776;48.260;8.928;2023-12-28T14:15:30;3.70;;;2.10;;
1725;SDS011;41776;48.260;8.928;2023-12-28T14:17:57;4.63;;;2.38;;
1725;SDS011;41776;48.260;8.928;2023-12-28T14:20:25;5.93;;;3.30;;
1725;SDS011;41776;48.260;8.928;2023-12-28T14:22:53;4.87;;;2.13;;
1725;SDS011;41776;48.260;8.928;2023-12-28T14:25:20;5.03;;;2.30;;
1725;SDS011;41776;48.260;8.928;2023-12-28T14:27:47;5.10;;;2.53;;
1725;SDS011;41776;48.260;8.928;2023-12-28T14:30:19;3.17;;;1.80;;
1725;SDS011;41776;48.260;8.928;2023-12-28T14:32:48;6.82;;;2.30;;
1725;SDS011;41776;48.260;8.928;2023-12-28T14:35:16;7.23;;;3.00;;
1725;SDS011;41776;48.260;8.928;2023-12-28T14:37:48;6.63;;;2.00;;
1725;SDS011;41776;48.260;8.928;2023-12-28T14:40:14;3.33;;;1.10;;
1725;SDS011;41776;48.260;8.928;2023-12-28T14:42:44;3.77;;;1.40;;
1725;SDS011;41776;48.260;8.928;2023-12-28T14:45:10;5.63;;;2.50;;
1725;SDS011;41776;48.260;8.928;2023-12-28T14:47:37;2.75;;;1.70;;
1725;SDS011;41776;48.260;8.928;2023-12-28T14:50:04;4.73;;;1.67;;
1725;SDS011;41776;48.260;8.928;2023-12-28T14:52:38;3.03;;;1.88;;
1725;SDS011;41776;48.260;8.928;2023-12-28T14:55:13;5.00;;;1.93;;
1725;SDS011;41776;48.260;8.928;2023-12-28T14:57:42;4.10;;;2.17;;
1725;SDS011;41776;48.260;8.928;2023-12-28T15:00:13;6.27;;;2.40;;